sensor_id;sensor_type;location;lat;lon;timestamp;pressure;altitude;pressure_sealevel;temperature;humidity
71059;BME280;70265;47.576;19.270;2024-02-28T00:00:19;98773.97;;;9.99;97.01
71059;BME280;70265;47.576;19.270;2024-02-28T00:01:26;98777.44;;;9.99;97.37
71059;BME280;70265;47.576;19.270;2024-02-28T00:02:26;98776.59;;;9.99;97.53
71059;BME280;70265;47.576;19.270;2024-02-28T00:03:31;98780.88;;;10.00;97.34
71059;BME280;70265;47.576;19.270;2024-02-28T00:04:32;98779.22;;;9.99;97.14
71059;BME280;70265;47.576;19.270;2024-02-28T00:05:33;98779.22;;;9.99;97.09
71059;BME280;70265;47.576;19.270;2024-02-28T00:06:36;98779.84;;;9.93;97.31
71059;BME280;70265;47.576;19.270;2024-02-28T00:07:38;98776.53;;;9.91;97.79
71059;BME280;70265;47.576;19.270;2024-02-28T00:08:42;98772.28;;;9.90;97.78
71059;BME280;70265;47.576;19.270;2024-02-28T00:09:43;98771.59;;;9.88;97.93
71059;BME280;70265;47.576;19.270;2024-02-28T00:10:44;98776.69;;;9.89;98.44
71059;BME280;70265;47.576;19.270;2024-02-28T00:11:48;98767.81;;;9.90;98.19
71059;BME280;70265;47.576;19.270;2024-02-28T00:12:48;98767.69;;;9.92;97.65
71059;BME280;70265;47.576;19.270;2024-02-28T00:13:49;98771.66;;;9.96;97.40
71059;BME280;70265;47.576;19.270;2024-02-28T00:14:53;98761.00;;;9.97;96.56
71059;BME280;70265;47.576;19.270;2024-02-28T00:15:54;98763.50;;;9.99;96.51
71059;BME280;70265;47.576;19.270;2024-02-28T00:17:00;98762.66;;;9.98;96.33
71059;BME280;70265;47.576;19.270;2024-02-28T00:18:01;98765.22;;;9.90;96.32
71059;BME280;70265;47.576;19.270;2024-02-28T00:19:05;98761.28;;;9.86;96.72
71059;BME280;70265;47.576;19.270;2024-02-28T00:20:09;98769.13;;;9.86;97.13
71059;BME280;70265;47.576;19.270;2024-02-28T00:21:12;98771.06;;;9.84;97.66
71059;BME280;70265;47.576;19.270;2024-02-28T00:22:15;98768.59;;;9.83;97.86
71059;BME280;70265;47.576;19.270;2024-02-28T00:23:16;98763.38;;;9.83;97.85
71059;BME280;70265;47.576;19.270;2024-02-28T00:24:20;98764.03;;;9.85;97.82
71059;BME280;70265;47.576;19.270;2024-02-28T00:25:21;98763.06;;;9.86;97.46
71059;BME280;70265;47.576;19.270;2024-02-28T00:26:26;98768.13;;;9.87;97.08
71059;BME280;70265;47.576;19.270;2024-02-28T00:27:26;98761.28;;;9.86;96.90
71059;BME280;70265;47.576;19.270;2024-02-28T00:28:28;98765.50;;;9.87;96.73
71059;BME280;70265;47.576;19.270;2024-02-28T00:29:31;98759.63;;;9.85;96.94
71059;BME280;70265;47.576;19.270;2024-02-28T00:30:32;98762.22;;;9.85;96.86
71059;BME280;70265;47.576;19.270;2024-02-28T00:31:35;98755.50;;;9.83;97.31
71059;BME280;70265;47.576;19.270;2024-02-28T00:32:39;98762.38;;;9.84;97.19
71059;BME280;70265;47.576;19.270;2024-02-28T00:33:42;98771.88;;;9.85;97.03
71059;BME280;70265;47.576;19.270;2024-02-28T00:34:43;98764.34;;;9.82;97.48
71059;BME280;70265;47.576;19.270;2024-02-28T00:35:47;98765.16;;;9.82;97.22
71059;BME280;70265;47.576;19.270;2024-02-28T00:36:48;98771.22;;;9.83;97.06
71059;BME280;70265;47.576;19.270;2024-02-28T00:37:51;98765.28;;;9.81;96.93
71059;BME280;70265;47.576;19.270;2024-02-28T00:38:52;98770.53;;;9.81;97.23
71059;BME280;70265;47.576;19.270;2024-02-28T00:39:56;98771.53;;;9.80;97.03
71059;BME280;70265;47.576;19.270;2024-02-28T00:40:56;98768.91;;;9.80;97.23
71059;BME280;70265;47.576;19.270;2024-02-28T00:41:57;98763.38;;;9.83;96.68
71059;BME280;70265;47.576;19.270;2024-02-28T00:43:01;98767.47;;;9.85;96.17
71059;BME280;70265;47.576;19.270;2024-02-28T00:44:03;98764.03;;;9.85;95.92
71059;BME280;70265;47.576;19.270;2024-02-28T00:45:09;98769.56;;;9.82;96.04
71059;BME280;70265;47.576;19.270;2024-02-28T00:46:10;98779.22;;;9.81;96.32
71059;BME280;70265;47.576;19.270;2024-02-28T00:47:14;98779.66;;;9.77;97.04
71059;BME280;70265;47.576;19.270;2024-02-28T00:48:17;98779.97;;;9.73;97.39
71059;BME280;70265;47.576;19.270;2024-02-28T00:49:21;98773.41;;;9.69;97.69
71059;BME280;70265;47.576;19.270;2024-02-28T00:50:22;98781.09;;;9.71;97.87
71059;BME280;70265;47.576;19.270;2024-02-28T00:51:26;98777.81;;;9.69;97.84
71059;BME280;70265;47.576;19.270;2024-02-28T00:52:26;98773.66;;;9.66;98.17
71059;BME280;70265;47.576;19.270;2024-02-28T00:53:32;98779.72;;;9.67;98.47
71059;BME280;70265;47.576;19.270;2024-02-28T00:54:33;98780.56;;;9.67;98.56
71059;BME280;70265;47.576;19.270;2024-02-28T00:55:36;98778.09;;;9.66;98.03
71059;BME280;70265;47.576;19.270;2024-02-28T00:56:37;98773.97;;;9.63;98.02
71059;BME280;70265;47.576;19.270;2024-02-28T00:57:38;98769.03;;;9.60;98.45
71059;BME280;70265;47.576;19.270;2024-02-28T00:58:43;98767.69;;;9.56;99.15
71059;BME280;70265;47.576;19.270;2024-02-28T00:59:44;98777.47;;;9.54;99.31
71059;BME280;70265;47.576;19.270;2024-02-28T01:00:45;98770.59;;;9.53;99.60
71059;BME280;70265;47.576;19.270;2024-02-28T01:01:49;98769.75;;;9.53;99.49
71059;BME280;70265;47.576;19.270;2024-02-28T01:02:49;98774.88;;;9.54;99.16
71059;BME280;70265;47.576;19.270;2024-02-28T01:03:56;98778.16;;;9.56;98.93
71059;BME280;70265;47.576;19.270;2024-02-28T01:04:57;98782.72;;;9.54;98.79
71059;BME280;70265;47.576;19.270;2024-02-28T01:06:00;98779.56;;;9.51;99.29
71059;BME280;70265;47.576;19.270;2024-02-28T01:07:01;98782.63;;;9.46;99.87
71059;BME280;70265;47.576;19.270;2024-02-28T01:08:06;98780.31;;;9.43;100.00
71059;BME280;70265;47.576;19.270;2024-02-28T01:09:07;98775.38;;;9.40;100.00
71059;BME280;70265;47.576;19.270;2024-02-28T01:10:09;98784.72;;;9.43;100.00
71059;BME280;70265;47.576;19.270;2024-02-28T01:11:13;98782.38;;;9.40;100.00
71059;BME280;70265;47.576;19.270;2024-02-28T01:12:14;98775.78;;;9.36;100.00
71059;BME280;70265;47.576;19.270;2024-02-28T01:13:15;98779.25;;;9.36;100.00
71059;BME280;70265;47.576;19.270;2024-02-28T01:14:19;98783.50;;;9.37;100.00
71059;BME280;70265;47.576;19.270;2024-02-28T01:15:20;98788.47;;;9.40;99.50
71059;BME280;70265;47.576;19.270;2024-02-28T01:16:20;98787.09;;;9.36;99.83
71059;BME280;70265;47.576;19.270;2024-02-28T01:17:26;98781.84;;;9.36;99.77
71059;BME280;70265;47.576;19.270;2024-02-28T01:18:27;98786.25;;;9.36;99.60
71059;BME280;70265;47.576;19.270;2024-02-28T01:19:35;98784.63;;;9.35;99.34
71059;BME280;70265;47.576;19.270;2024-02-28T01:20:36;98783.28;;;9.31;99.67
71059;BME280;70265;47.576;19.270;2024-02-28T01:21:39;98786.84;;;9.30;99.69
71059;BME280;70265;47.576;19.270;2024-02-28T01:22:40;98790.59;;;9.27;99.90
71059;BME280;70265;47.576;19.270;2024-02-28T01:23:44;98790.47;;;9.29;99.66
71059;BME280;70265;47.576;19.270;2024-02-28T01:24:45;98790.59;;;9.27;99.51
71059;BME280;70265;47.576;19.270;2024-02-28T01:25:48;98791.44;;;9.28;99.53
71059;BME280;70265;47.576;19.270;2024-02-28T01:26:49;98787.97;;;9.27;99.08
71059;BME280;70265;47.576;19.270;2024-02-28T01:27:52;98781.91;;;9.27;98.90
71059;BME280;70265;47.576;19.270;2024-02-28T01:28:53;98783.56;;;9.28;98.77
71059;BME280;70265;47.576;19.270;2024-02-28T01:29:57;98785.06;;;9.30;98.09
71059;BME280;70265;47.576;19.270;2024-02-28T01:30:59;98780.78;;;9.29;97.53
71059;BME280;70265;47.576;19.270;2024-02-28T01:32:02;98779.16;;;9.28;97.49
71059;BME280;70265;47.576;19.270;2024-02-28T01:33:04;98779.16;;;9.28;97.63
71059;BME280;70265;47.576;19.270;2024-02-28T01:34:07;98780.97;;;9.28;97.81
71059;BME280;70265;47.576;19.270;2024-02-28T01:35:11;98781.78;;;9.28;97.81
71059;BME280;70265;47.576;19.270;2024-02-28T01:36:15;98780.78;;;9.29;97.98
71059;BME280;70265;47.576;19.270;2024-02-28T01:37:16;98780.78;;;9.29;98.22
71059;BME280;70265;47.576;19.270;2024-02-28T01:38:20;98780.00;;;9.29;98.27
71059;BME280;70265;47.576;19.270;2024-02-28T01:39:21;98784.41;;;9.28;98.15
71059;BME280;70265;47.576;19.270;2024-02-28T01:40:24;98782.16;;;9.33;96.84
71059;BME280;70265;47.576;19.270;2024-02-28T01:41:25;98788.22;;;9.34;96.87
71059;BME280;70265;47.576;19.270;2024-02-28T01:42:26;98787.38;;;9.33;96.46
71059;BME280;70265;47.576;19.270;2024-02-28T01:43:30;98784.94;;;9.32;96.34
71059;BME280;70265;47.576;19.270;2024-02-28T01:44:33;98789.34;;;9.31;96.22
71059;BME280;70265;47.576;19.270;2024-02-28T01:45:43;98790.72;;;9.35;95.84
71059;BME280;70265;47.576;19.270;2024-02-28T01:46:44;98794.13;;;9.36;96.05
71059;BME280;70265;47.576;19.270;2024-02-28T01:47:49;98795.94;;;9.35;95.73
71059;BME280;70265;47.576;19.270;2024-02-28T01:48:51;98794.28;;;9.34;95.94
71059;BME280;70265;47.576;19.270;2024-02-28T01:49:55;98784.94;;;9.32;95.71
71059;BME280;70265;47.576;19.270;2024-02-28T01:50:58;98790.97;;;9.32;95.51
71059;BME280;70265;47.576;19.270;2024-02-28T01:52:03;98785.72;;;9.32;95.36
71059;BME280;70265;47.576;19.270;2024-02-28T01:53:06;98795.53;;;9.30;95.48
71059;BME280;70265;47.576;19.270;2024-02-28T01:54:10;98782.44;;;9.30;95.24
71059;BME280;70265;47.576;19.270;2024-02-28T01:55:11;98794.88;;;9.28;94.86
71059;BME280;70265;47.576;19.270;2024-02-28T01:56:16;98787.84;;;9.29;94.95
71059;BME280;70265;47.576;19.270;2024-02-28T01:57:17;98792.09;;;9.30;95.10
71059;BME280;70265;47.576;19.270;2024-02-28T01:58:20;98798.31;;;9.29;94.92
71059;BME280;70265;47.576;19.270;2024-02-28T01:59:23;98797.31;;;9.30;95.14
71059;BME280;70265;47.576;19.270;2024-02-28T02:00:28;98793.34;;;9.26;94.79
71059;BME280;70265;47.576;19.270;2024-02-28T02:01:29;98790.19;;;9.22;94.99
71059;BME280;70265;47.576;19.270;2024-02-28T02:02:33;98801.19;;;9.26;95.29
71059;BME280;70265;47.576;19.270;2024-02-28T02:03:34;98795.44;;;9.22;95.09
71059;BME280;70265;47.576;19.270;2024-02-28T02:04:35;98798.03;;;9.22;95.65
71059;BME280;70265;47.576;19.270;2024-02-28T02:05:38;98798.88;;;9.23;96.10
71059;BME280;70265;47.576;19.270;2024-02-28T02:06:43;98797.38;;;9.20;96.33
71059;BME280;70265;47.576;19.270;2024-02-28T02:07:48;98804.41;;;9.19;96.14
71059;BME280;70265;47.576;19.270;2024-02-28T02:08:49;98808.13;;;9.17;96.66
71059;BME280;70265;47.576;19.270;2024-02-28T02:09:54;98805.81;;;9.14;97.09
71059;BME280;70265;47.576;19.270;2024-02-28T02:10:55;98798.94;;;9.13;97.36
71059;BME280;70265;47.576;19.270;2024-02-28T02:11:58;98802.50;;;9.12;97.06
71059;BME280;70265;47.576;19.270;2024-02-28T02:13:04;98805.28;;;9.10;97.25
71059;BME280;70265;47.576;19.270;2024-02-28T02:14:08;98803.78;;;9.08;97.01
71059;BME280;70265;47.576;19.270;2024-02-28T02:15:10;98806.09;;;9.11;96.80
71059;BME280;70265;47.576;19.270;2024-02-28T02:16:13;98805.41;;;9.09;96.79
71059;BME280;70265;47.576;19.270;2024-02-28T02:17:14;98807.38;;;9.07;96.45
71059;BME280;70265;47.576;19.270;2024-02-28T02:18:18;98800.19;;;9.09;96.47
71059;BME280;70265;47.576;19.270;2024-02-28T02:19:19;98809.81;;;9.08;96.48
71059;BME280;70265;47.576;19.270;2024-02-28T02:20:21;98807.38;;;9.07;96.64
71059;BME280;70265;47.576;19.270;2024-02-28T02:21:30;98807.38;;;9.07;96.31
71059;BME280;70265;47.576;19.270;2024-02-28T02:22:36;98808.31;;;9.06;96.41
71059;BME280;70265;47.576;19.270;2024-02-28T02:23:40;98807.38;;;9.07;96.18
71059;BME280;70265;47.576;19.270;2024-02-28T02:24:42;98806.41;;;9.08;95.90
71059;BME280;70265;47.576;19.270;2024-02-28T02:25:45;98809.16;;;9.06;95.77
71059;BME280;70265;47.576;19.270;2024-02-28T02:26:47;98799.81;;;9.04;95.71
71059;BME280;70265;47.576;19.270;2024-02-28T02:27:52;98811.75;;;9.06;95.29
71059;BME280;70265;47.576;19.270;2024-02-28T02:28:53;98813.56;;;9.06;95.47
71059;BME280;70265;47.576;19.270;2024-02-28T02:29:57;98816.16;;;9.06;95.75
71059;BME280;70265;47.576;19.270;2024-02-28T02:30:57;98817.00;;;9.06;95.69
71059;BME280;70265;47.576;19.270;2024-02-28T02:32:01;98812.88;;;9.04;95.72
71059;BME280;70265;47.576;19.270;2024-02-28T02:33:02;98812.88;;;9.04;96.03
71059;BME280;70265;47.576;19.270;2024-02-28T02:34:06;98812.34;;;9.00;96.38
71059;BME280;70265;47.576;19.270;2024-02-28T02:35:07;98804.91;;;8.96;96.09
71059;BME280;70265;47.576;19.270;2024-02-28T02:36:11;98809.19;;;8.97;96.15
71059;BME280;70265;47.576;19.270;2024-02-28T02:37:12;98812.78;;;8.96;95.80
71059;BME280;70265;47.576;19.270;2024-02-28T02:38:18;98821.44;;;8.96;96.10
71059;BME280;70265;47.576;19.270;2024-02-28T02:39:19;98819.78;;;8.95;95.75
71059;BME280;70265;47.576;19.270;2024-02-28T02:40:22;98818.16;;;8.94;95.42
71059;BME280;70265;47.576;19.270;2024-02-28T02:41:23;98808.78;;;8.92;95.56
71059;BME280;70265;47.576;19.270;2024-02-28T02:42:27;98810.44;;;8.93;95.28
71059;BME280;70265;47.576;19.270;2024-02-28T02:43:28;98814.19;;;8.90;94.92
71059;BME280;70265;47.576;19.270;2024-02-28T02:44:31;98819.25;;;8.92;95.03
71059;BME280;70265;47.576;19.270;2024-02-28T02:45:32;98812.38;;;8.91;95.02
71059;BME280;70265;47.576;19.270;2024-02-28T02:46:36;98814.00;;;8.92;94.79
71059;BME280;70265;47.576;19.270;2024-02-28T02:47:36;98815.00;;;8.91;94.70
71059;BME280;70265;47.576;19.270;2024-02-28T02:48:37;98810.84;;;8.88;94.57
71059;BME280;70265;47.576;19.270;2024-02-28T02:49:41;98814.00;;;8.92;94.86
71059;BME280;70265;47.576;19.270;2024-02-28T02:50:42;98813.34;;;8.90;94.58
71059;BME280;70265;47.576;19.270;2024-02-28T02:51:45;98817.63;;;8.91;94.78
71059;BME280;70265;47.576;19.270;2024-02-28T02:52:46;98819.94;;;8.94;94.50
71059;BME280;70265;47.576;19.270;2024-02-28T02:53:50;98819.94;;;8.94;94.46
71059;BME280;70265;47.576;19.270;2024-02-28T02:54:54;98822.56;;;8.94;94.45
71059;BME280;70265;47.576;19.270;2024-02-28T02:55:55;98830.00;;;8.89;95.18
71059;BME280;70265;47.576;19.270;2024-02-28T02:56:56;98826.00;;;8.85;96.12
71059;BME280;70265;47.576;19.270;2024-02-28T02:57:59;98829.63;;;8.84;96.43
71059;BME280;70265;47.576;19.270;2024-02-28T02:59:01;98823.56;;;8.83;96.52
71059;BME280;70265;47.576;19.270;2024-02-28T03:00:08;98830.16;;;8.87;96.20
71059;BME280;70265;47.576;19.270;2024-02-28T03:01:12;98830.56;;;8.83;96.54
71059;BME280;70265;47.576;19.270;2024-02-28T03:02:13;98823.69;;;8.82;96.97
71059;BME280;70265;47.576;19.270;2024-02-28T03:03:14;98832.22;;;8.84;97.05
71059;BME280;70265;47.576;19.270;2024-02-28T03:04:17;98828.63;;;8.85;96.99
71059;BME280;70265;47.576;19.270;2024-02-28T03:05:18;98831.00;;;8.88;96.19
71059;BME280;70265;47.576;19.270;2024-02-28T03:06:22;98837.72;;;8.90;95.52
71059;BME280;70265;47.576;19.270;2024-02-28T03:07:27;98842.13;;;8.90;95.82
71059;BME280;70265;47.576;19.270;2024-02-28T03:08:31;98848.59;;;8.86;96.77
71059;BME280;70265;47.576;19.270;2024-02-28T03:09:34;98836.75;;;8.82;97.17
71059;BME280;70265;47.576;19.270;2024-02-28T03:10:35;98838.53;;;8.81;97.31
71059;BME280;70265;47.576;19.270;2024-02-28T03:11:39;98844.19;;;8.86;97.11
71059;BME280;70265;47.576;19.270;2024-02-28T03:12:40;98838.00;;;8.87;96.47
71059;BME280;70265;47.576;19.270;2024-02-28T03:13:44;98835.22;;;8.89;96.77
71059;BME280;70265;47.576;19.270;2024-02-28T03:14:45;98836.22;;;8.88;96.60
71059;BME280;70265;47.576;19.270;2024-02-28T03:15:51;98840.75;;;8.86;96.95
71059;BME280;70265;47.576;19.270;2024-02-28T03:16:52;98836.47;;;8.85;97.00
71059;BME280;70265;47.576;19.270;2024-02-28T03:17:56;98833.59;;;8.88;96.68
71059;BME280;70265;47.576;19.270;2024-02-28T03:18:56;98836.75;;;8.91;95.97
71059;BME280;70265;47.576;19.270;2024-02-28T03:20:00;98833.03;;;8.94;95.69
71059;BME280;70265;47.576;19.270;2024-02-28T03:21:01;98838.53;;;8.91;96.01
71059;BME280;70265;47.576;19.270;2024-02-28T03:22:05;98831.66;;;8.90;96.06
71059;BME280;70265;47.576;19.270;2024-02-28T03:23:06;98833.16;;;8.92;94.98
71059;BME280;70265;47.576;19.270;2024-02-28T03:24:09;98838.25;;;8.94;94.85
71059;BME280;70265;47.576;19.270;2024-02-28T03:25:13;98826.81;;;8.95;95.16
71059;BME280;70265;47.576;19.270;2024-02-28T03:26:16;98823.69;;;8.91;95.33
71059;BME280;70265;47.576;19.270;2024-02-28T03:27:17;98836.47;;;8.94;95.53
71059;BME280;70265;47.576;19.270;2024-02-28T03:28:18;98833.03;;;8.94;95.54
71059;BME280;70265;47.576;19.270;2024-02-28T03:29:22;98826.81;;;8.95;95.59
71059;BME280;70265;47.576;19.270;2024-02-28T03:30:22;98827.78;;;8.94;95.62
71059;BME280;70265;47.576;19.270;2024-02-28T03:31:26;98833.97;;;8.93;95.48
71059;BME280;70265;47.576;19.270;2024-02-28T03:32:27;98836.47;;;8.94;95.70
71059;BME280;70265;47.576;19.270;2024-02-28T03:33:30;98836.31;;;8.96;95.53
71059;BME280;70265;47.576;19.270;2024-02-28T03:34:33;98843.19;;;8.97;95.59
71059;BME280;70265;47.576;19.270;2024-02-28T03:35:36;98832.75;;;8.97;95.92
71059;BME280;70265;47.576;19.270;2024-02-28T03:36:37;98831.78;;;8.98;95.55
71059;BME280;70265;47.576;19.270;2024-02-28T03:37:41;98840.41;;;8.98;94.17
71059;BME280;70265;47.576;19.270;2024-02-28T03:38:42;98831.78;;;8.98;92.45
71059;BME280;70265;47.576;19.270;2024-02-28T03:39:43;98835.06;;;9.00;92.35
71059;BME280;70265;47.576;19.270;2024-02-28T03:40:49;98838.34;;;9.02;92.95
71059;BME280;70265;47.576;19.270;2024-02-28T03:41:49;98840.16;;;9.01;92.01
71059;BME280;70265;47.576;19.270;2024-02-28T03:42:53;98837.38;;;9.03;91.83
71059;BME280;70265;47.576;19.270;2024-02-28T03:43:54;98840.97;;;9.02;92.67
71059;BME280;70265;47.576;19.270;2024-02-28T03:44:58;98841.25;;;8.99;93.94
71059;BME280;70265;47.576;19.270;2024-02-28T03:45:59;98827.34;;;8.98;93.93
71059;BME280;70265;47.576;19.270;2024-02-28T03:47:03;98834.41;;;8.98;94.72
71059;BME280;70265;47.576;19.270;2024-02-28T03:48:05;98844.84;;;8.98;94.56
71059;BME280;70265;47.576;19.270;2024-02-28T03:49:06;98834.41;;;8.98;94.26
71059;BME280;70265;47.576;19.270;2024-02-28T03:50:09;98840.47;;;8.89;94.13
71059;BME280;70265;47.576;19.270;2024-02-28T03:51:10;98842.94;;;8.90;94.25
71059;BME280;70265;47.576;19.270;2024-02-28T03:52:14;98846.53;;;8.89;94.12
71059;BME280;70265;47.576;19.270;2024-02-28T03:53:15;98834.94;;;8.92;93.48
71059;BME280;70265;47.576;19.270;2024-02-28T03:54:16;98841.81;;;8.93;93.17
71059;BME280;70265;47.576;19.270;2024-02-28T03:55:19;98838.38;;;8.92;93.10
71059;BME280;70265;47.576;19.270;2024-02-28T03:56:26;98842.78;;;8.92;93.06
71059;BME280;70265;47.576;19.270;2024-02-28T03:57:27;98841.81;;;8.93;93.56
71059;BME280;70265;47.576;19.270;2024-02-28T03:58:30;98847.34;;;8.90;94.24
71059;BME280;70265;47.576;19.270;2024-02-28T03:59:31;98852.28;;;8.93;94.33
71059;BME280;70265;47.576;19.270;2024-02-28T04:00:32;98856.56;;;8.94;94.65
71059;BME280;70265;47.576;19.270;2024-02-28T04:01:35;98848.03;;;8.92;94.51
71059;BME280;70265;47.576;19.270;2024-02-28T04:02:36;98845.13;;;8.95;93.20
71059;BME280;70265;47.576;19.270;2024-02-28T04:03:39;98849.25;;;8.97;92.54
71059;BME280;70265;47.576;19.270;2024-02-28T04:04:40;98845.66;;;8.98;93.00
71059;BME280;70265;47.576;19.270;2024-02-28T04:05:44;98853.38;;;9.00;92.56
71059;BME280;70265;47.576;19.270;2024-02-28T04:06:45;98854.22;;;9.00;92.47
71059;BME280;70265;47.576;19.270;2024-02-28T04:07:48;98853.25;;;9.01;92.06
71059;BME280;70265;47.576;19.270;2024-02-28T04:08:49;98848.81;;;9.02;91.52
71059;BME280;70265;47.576;19.270;2024-02-28T04:09:53;98855.69;;;9.03;91.23
71059;BME280;70265;47.576;19.270;2024-02-28T04:10:54;98855.03;;;9.01;91.03
71059;BME280;70265;47.576;19.270;2024-02-28T04:12:00;98859.44;;;9.00;90.79
71059;BME280;70265;47.576;19.270;2024-02-28T04:13:01;98861.50;;;8.97;90.11
71059;BME280;70265;47.576;19.270;2024-02-28T04:14:04;98862.19;;;8.99;90.34
71059;BME280;70265;47.576;19.270;2024-02-28T04:15:06;98856.00;;;9.00;89.74
71059;BME280;70265;47.576;19.270;2024-02-28T04:16:11;98855.03;;;9.01;89.78
71059;BME280;70265;47.576;19.270;2024-02-28T04:17:12;98855.69;;;9.03;90.18
71059;BME280;70265;47.576;19.270;2024-02-28T04:18:13;98857.38;;;9.04;90.07
71059;BME280;70265;47.576;19.270;2024-02-28T04:19:16;98857.38;;;9.04;90.63
71059;BME280;70265;47.576;19.270;2024-02-28T04:20:18;98855.69;;;9.03;90.88
71059;BME280;70265;47.576;19.270;2024-02-28T04:21:21;98854.03;;;9.02;90.53
71059;BME280;70265;47.576;19.270;2024-02-28T04:22:22;98858.31;;;9.03;89.92
71059;BME280;70265;47.576;19.270;2024-02-28T04:23:26;98856.66;;;9.02;90.07
71059;BME280;70265;47.576;19.270;2024-02-28T04:24:27;98857.50;;;9.02;89.34
71059;BME280;70265;47.576;19.270;2024-02-28T04:25:31;98854.03;;;9.02;89.55
71059;BME280;70265;47.576;19.270;2024-02-28T04:26:32;98849.81;;;9.01;89.17
71059;BME280;70265;47.576;19.270;2024-02-28T04:27:38;98851.19;;;8.95;89.52
71059;BME280;70265;47.576;19.270;2024-02-28T04:28:39;98852.97;;;8.95;88.79
71059;BME280;70265;47.576;19.270;2024-02-28T04:29:44;98852.97;;;8.95;89.02
71059;BME280;70265;47.576;19.270;2024-02-28T04:30:45;98857.41;;;8.94;88.79
71059;BME280;70265;47.576;19.270;2024-02-28T04:31:48;98858.19;;;8.95;89.20
71059;BME280;70265;47.576;19.270;2024-02-28T04:32:49;98856.69;;;8.92;88.89
71059;BME280;70265;47.576;19.270;2024-02-28T04:33:54;98866.03;;;8.95;88.77
71059;BME280;70265;47.576;19.270;2024-02-28T04:34:55;98868.00;;;8.93;89.01
71059;BME280;70265;47.576;19.270;2024-02-28T04:35:56;98870.59;;;8.93;89.17
71059;BME280;70265;47.576;19.270;2024-02-28T04:36:59;98869.66;;;8.94;89.58
71059;BME280;70265;47.576;19.270;2024-02-28T04:38:03;98878.59;;;8.91;89.10
71059;BME280;70265;47.576;19.270;2024-02-28T04:39:04;98877.78;;;8.91;89.19
71059;BME280;70265;47.576;19.270;2024-02-28T04:40:11;98882.31;;;8.89;89.20
71059;BME280;70265;47.576;19.270;2024-02-28T04:41:12;98878.88;;;8.88;89.00
71059;BME280;70265;47.576;19.270;2024-02-28T04:42:16;98879.84;;;8.87;89.20
71059;BME280;70265;47.576;19.270;2024-02-28T04:43:19;98883.41;;;8.86;89.48
71059;BME280;70265;47.576;19.270;2024-02-28T04:44:23;98873.09;;;8.85;89.71
71059;BME280;70265;47.576;19.270;2024-02-28T04:45:24;98880.69;;;8.78;89.91
71059;BME280;70265;47.576;19.270;2024-02-28T04:46:28;98869.25;;;8.79;90.10
71059;BME280;70265;47.576;19.270;2024-02-28T04:47:29;98874.91;;;8.75;90.44
71059;BME280;70265;47.576;19.270;2024-02-28T04:48:33;98879.47;;;8.73;90.44
71059;BME280;70265;47.576;19.270;2024-02-28T04:49:36;98881.41;;;8.71;90.95
71059;BME280;70265;47.576;19.270;2024-02-28T04:50:37;98883.19;;;8.70;91.00
71059;BME280;70265;47.576;19.270;2024-02-28T04:51:40;98884.81;;;8.71;91.26
71059;BME280;70265;47.576;19.270;2024-02-28T04:52:41;98878.78;;;8.71;91.66
71059;BME280;70265;47.576;19.270;2024-02-28T04:53:42;98883.19;;;8.70;91.40
71059;BME280;70265;47.576;19.270;2024-02-28T04:54:46;98884.00;;;8.71;91.44
71059;BME280;70265;47.576;19.270;2024-02-28T04:55:47;98881.53;;;8.69;91.35
71059;BME280;70265;47.576;19.270;2024-02-28T04:56:51;98886.88;;;8.67;91.74
71059;BME280;70265;47.576;19.270;2024-02-28T04:57:51;98888.56;;;8.59;92.11
71059;BME280;70265;47.576;19.270;2024-02-28T04:58:58;98889.13;;;8.53;92.43
71059;BME280;70265;47.576;19.270;2024-02-28T05:00:03;98885.69;;;8.52;92.66
71059;BME280;70265;47.576;19.270;2024-02-28T05:01:05;98893.66;;;8.51;92.53
71059;BME280;70265;47.576;19.270;2024-02-28T05:02:08;98877.41;;;8.47;92.76
71059;BME280;70265;47.576;19.270;2024-02-28T05:03:09;98886.25;;;8.46;92.72
71059;BME280;70265;47.576;19.270;2024-02-28T05:04:13;98879.22;;;8.47;92.70
71059;BME280;70265;47.576;19.270;2024-02-28T05:05:14;98875.50;;;8.49;92.87
71059;BME280;70265;47.576;19.270;2024-02-28T05:06:18;98878.78;;;8.51;92.59
71059;BME280;70265;47.576;19.270;2024-02-28T05:07:20;98872.88;;;8.49;92.43
71059;BME280;70265;47.576;19.270;2024-02-28T05:08:24;98877.97;;;8.51;92.33
71059;BME280;70265;47.576;19.270;2024-02-28T05:09:27;98876.19;;;8.51;91.96
71059;BME280;70265;47.576;19.270;2024-02-28T05:10:30;98871.63;;;8.44;92.52
71059;BME280;70265;47.576;19.270;2024-02-28T05:11:32;98867.13;;;8.46;92.42
71059;BME280;70265;47.576;19.270;2024-02-28T05:12:36;98870.56;;;8.46;92.27
71059;BME280;70265;47.576;19.270;2024-02-28T05:13:37;98867.78;;;8.48;92.45
71059;BME280;70265;47.576;19.270;2024-02-28T05:14:43;98870.28;;;8.49;92.30
71059;BME280;70265;47.576;19.270;2024-02-28T05:15:44;98867.78;;;8.48;92.32
71059;BME280;70265;47.576;19.270;2024-02-28T05:16:47;98867.25;;;8.44;92.42
71059;BME280;70265;47.576;19.270;2024-02-28T05:17:50;98869.03;;;8.44;92.72
71059;BME280;70265;47.576;19.270;2024-02-28T05:18:51;98859.00;;;8.39;92.64
71059;BME280;70265;47.576;19.270;2024-02-28T05:19:55;98867.97;;;8.37;92.92
71059;BME280;70265;47.576;19.270;2024-02-28T05:20:57;98869.03;;;8.34;93.26
71059;BME280;70265;47.576;19.270;2024-02-28T05:22:01;98872.75;;;8.32;93.61
71059;BME280;70265;47.576;19.270;2024-02-28T05:23:03;98874.81;;;8.28;93.98
71059;BME280;70265;47.576;19.270;2024-02-28T05:24:07;98873.13;;;8.27;94.01
71059;BME280;70265;47.576;19.270;2024-02-28T05:25:09;98871.78;;;8.23;94.02
71059;BME280;70265;47.576;19.270;2024-02-28T05:26:13;98865.00;;;8.20;94.38
71059;BME280;70265;47.576;19.270;2024-02-28T05:27:14;98868.75;;;8.18;94.44
71059;BME280;70265;47.576;19.270;2024-02-28T05:28:19;98873.84;;;8.19;93.83
71059;BME280;70265;47.576;19.270;2024-02-28T05:29:20;98866.94;;;8.18;93.96
71059;BME280;70265;47.576;19.270;2024-02-28T05:30:24;98876.56;;;8.18;93.99
71059;BME280;70265;47.576;19.270;2024-02-28T05:31:28;98876.03;;;8.24;93.04